Time;durP1;ratioP1;P1;durP2;ratioP2;P2;SDS_P1;SDS_P2;PMS_P1;PMS_P2;Temp;Humidity;BMP_temperature;BMP_pressure;BME280_temperature;BME280_humidity;BME280_pressure;Samples;Min_cycle;Max_cycle;Signal;HPM_P1;HPM_P2
2023/09/02 00:03:00;;;;;;;;;;;20.10;68.00;;;;;;10214595;28;93473;-68
2023/09/02 00:08:01;;;;;;;;;;;20.10;67.00;;;;;;10222927;28;94606;-68
2023/09/02 00:13:03;;;;;;;;;;;20.10;67.10;;;;;;10223093;28;94442;-67
2023/09/02 00:18:05;;;;;;;;;;;20.10;67.00;;;;;;10236535;28;93484;-68
2023/09/02 00:23:07;;;;;;;;;;;20.10;67.10;;;;;;10211661;28;93503;-67
2023/09/02 00:28:09;;;;;;;;;;;20.00;67.10;;;;;;10229310;28;92595;-68
2023/09/02 00:33:11;;;;;;;;;;;20.00;67.20;;;;;;10214179;28;93655;-68
2023/09/02 00:38:12;;;;;;;;;;;20.00;67.20;;;;;;10239024;28;94157;-67
2023/09/02 00:43:14;;;;;;;;;;;20.00;67.30;;;;;;10224180;28;96097;-68
2023/09/02 00:48:16;;;;;;;;;;;20.00;67.30;;;;;;10213730;28;93397;-68
2023/09/02 00:53:18;;;;;;;;;;;20.00;67.30;;;;;;10230452;28;93518;-68
2023/09/02 00:58:21;;;;;;;;;;;20.00;67.40;;;;;;10224113;28;93416;-68
2023/09/02 01:03:22;;;;;;;;;;;20.00;67.30;;;;;;10225803;28;93243;-68
2023/09/02 01:08:26;;;;;;;;;;;20.00;67.40;;;;;;10217757;28;93234;-68
2023/09/02 01:13:28;;;;;;;;;;;20.00;67.50;;;;;;10222292;28;93764;-68
2023/09/02 01:18:30;;;;;;;;;;;20.00;67.50;;;;;;10212706;28;92684;-68
2023/09/02 01:23:40;;;;;;;;;;;20.00;67.50;;;;;;10222674;28;93474;-68
2023/09/02 01:28:43;;;;;;;;;;;20.00;67.50;;;;;;10210600;28;93428;-68
2023/09/02 01:33:47;;;;;;;;;;;20.00;67.50;;;;;;10210449;28;96816;-68
2023/09/02 01:38:51;;;;;;;;;;;20.00;67.30;;;;;;10230664;28;92878;-68
2023/09/02 01:43:55;;;;;;;;;;;20.10;67.40;;;;;;10206758;28;93364;-68
2023/09/02 01:48:58;;;;;;;;;;;20.00;67.30;;;;;;10214939;28;93286;-69
2023/09/02 01:53:59;;;;;;;;;;;20.10;67.40;;;;;;10220987;28;94402;-68
2023/09/02 01:59:01;;;;;;;;;;;20.10;67.60;;;;;;10223363;28;94454;-68
2023/09/02 02:04:10;;;;;;;;;;;20.10;67.20;;;;;;10208442;28;94396;-68
2023/09/02 02:09:13;;;;;;;;;;;20.10;67.40;;;;;;10217916;28;92821;-68
2023/09/02 02:14:14;;;;;;;;;;;20.10;67.40;;;;;;10236526;28;94399;-67
2023/09/02 02:19:16;;;;;;;;;;;20.10;67.30;;;;;;10216811;28;94434;-69
2023/09/02 02:24:18;;;;;;;;;;;20.10;67.30;;;;;;10210090;28;97428;-67
2023/09/02 02:29:19;;;;;;;;;;;20.10;67.20;;;;;;10223755;28;95137;-67
2023/09/02 02:34:24;;;;;;;;;;;20.10;67.20;;;;;;10210630;28;94108;-68
2023/09/02 02:39:28;;;;;;;;;;;20.10;67.20;;;;;;10222319;28;94489;-67
2023/09/02 02:44:30;;;;;;;;;;;20.10;67.10;;;;;;10221975;28;95038;-68
2023/09/02 02:49:31;;;;;;;;;;;20.20;67.20;;;;;;10216379;28;93456;-68
2023/09/02 02:54:37;;;;;;;;;;;20.10;67.30;;;;;;10215857;28;94246;-68
2023/09/02 02:59:38;;;;;;;;;;;20.10;67.20;;;;;;10222084;28;93395;-68
2023/09/02 03:04:40;;;;;;;;;;;20.20;67.30;;;;;;10215716;28;93379;-68
2023/09/02 03:09:42;;;;;;;;;;;20.10;67.30;;;;;;10209461;28;93491;-68
2023/09/02 03:14:46;;;;;;;;;;;20.20;67.10;;;;;;10203362;28;96888;-68
2023/09/02 03:19:48;;;;;;;;;;;20.20;67.10;;;;;;10221261;28;93402;-68
2023/09/02 03:24:54;;;;;;;;;;;20.20;67.00;;;;;;10205710;28;94448;-68
2023/09/02 03:29:58;;;;;;;;;;;20.20;67.00;;;;;;10196798;28;93420;-68
2023/09/02 03:34:59;;;;;;;;;;;20.20;67.10;;;;;;10202054;28;94249;-68
2023/09/02 03:40:03;;;;;;;;;;;20.20;67.40;;;;;;10220378;28;94553;-68
2023/09/02 03:45:06;;;;;;;;;;;20.20;67.40;;;;;;10207279;28;93618;-65
2023/09/02 03:50:07;;;;;;;;;;;20.10;67.40;;;;;;10227006;28;92833;-66
2023/09/02 03:55:09;;;;;;;;;;;20.20;67.40;;;;;;10229354;28;94943;-65
2023/09/02 04:00:12;;;;;;;;;;;20.10;67.60;;;;;;10238476;28;93504;-65
2023/09/02 04:05:14;;;;;;;;;;;20.10;67.60;;;;;;10239278;28;95859;-70
2023/09/02 04:10:16;;;;;;;;;;;20.20;67.60;;;;;;10231856;28;93792;-65
2023/09/02 04:15:18;;;;;;;;;;;20.10;67.30;;;;;;10226326;28;93792;-66
2023/09/02 04:20:20;;;;;;;;;;;20.10;67.60;;;;;;10207741;28;94009;-65
2023/09/02 04:25:22;;;;;;;;;;;20.10;67.60;;;;;;10207272;28;94341;-66
2023/09/02 04:30:26;;;;;;;;;;;20.10;67.90;;;;;;10225380;28;94562;-65
2023/09/02 04:35:28;;;;;;;;;;;20.10;68.00;;;;;;10228063;28;94589;-65
2023/09/02 04:40:31;;;;;;;;;;;20.10;67.90;;;;;;10228006;28;93706;-64
2023/09/02 04:50:55;;;;;;;;;;;20.00;67.90;;;;;;10503346;22;94969;-52
2023/09/02 04:56:00;;;;;;;;;;;20.00;68.10;;;;;;10213353;28;97199;-54
2023/09/02 05:01:11;;;;;;;;;;;20.00;68.20;;;;;;10246032;28;93619;-54
2023/09/02 05:06:13;;;;;;;;;;;20.00;68.10;;;;;;10216029;28;94360;-54
2023/09/02 05:11:15;;;;;;;;;;;20.00;68.30;;;;;;10229248;28;93488;-54
2023/09/02 05:16:17;;;;;;;;;;;20.00;68.10;;;;;;10216875;28;93133;-54
2023/09/02 05:21:18;;;;;;;;;;;20.00;68.30;;;;;;10213215;28;94515;-52
2023/09/02 05:26:20;;;;;;;;;;;20.00;68.50;;;;;;10226632;28;94996;-52
2023/09/02 05:31:22;;;;;;;;;;;20.00;68.40;;;;;;10203404;28;93054;-53
2023/09/02 05:36:24;;;;;;;;;;;20.00;68.60;;;;;;10214511;28;93473;-52
2023/09/02 05:41:27;;;;;;;;;;;20.00;68.60;;;;;;10219536;28;93948;-54
2023/09/02 05:46:29;;;;;;;;;;;20.00;68.70;;;;;;10236424;28;97215;-51
2023/09/02 05:51:31;;;;;;;;;;;20.00;68.50;;;;;;10221358;28;94480;-53
2023/09/02 05:56:34;;;;;;;;;;;20.00;68.30;;;;;;10212236;28;94424;-54
2023/09/02 06:01:35;;;;;;;;;;;19.90;68.60;;;;;;10214191;28;93625;-53
2023/09/02 06:06:37;;;;;;;;;;;19.90;68.70;;;;;;10209807;28;93564;-53
2023/09/02 06:11:39;;;;;;;;;;;19.90;68.60;;;;;;10235219;28;93472;-52
2023/09/02 06:16:41;;;;;;;;;;;19.90;68.60;;;;;;10219822;28;94741;-52
2023/09/02 06:21:43;;;;;;;;;;;19.90;68.60;;;;;;10229268;28;92915;-52
2023/09/02 06:26:44;;;;;;;;;;;19.90;68.90;;;;;;10200846;28;93496;-53
2023/09/02 06:31:46;;;;;;;;;;;19.90;68.60;;;;;;10208813;28;93698;-54
2023/09/02 06:36:48;;;;;;;;;;;19.90;68.70;;;;;;10209245;28;96163;-56
2023/09/02 06:41:50;;;;;;;;;;;20.00;68.80;;;;;;10196811;28;93359;-55
2023/09/02 06:46:54;;;;;;;;;;;19.90;68.70;;;;;;10223262;28;94710;-54
2023/09/02 06:51:56;;;;;;;;;;;19.90;68.60;;;;;;10232943;28;93887;-51
2023/09/02 06:56:58;;;;;;;;;;;20.00;68.50;;;;;;10219625;28;94697;-52
2023/09/02 07:01:59;;;;;;;;;;;19.90;68.40;;;;;;10223764;28;94438;-53
2023/09/02 07:07:01;;;;;;;;;;;20.00;68.50;;;;;;10220992;28;94651;-54
2023/09/02 07:12:03;;;;;;;;;;;20.00;68.50;;;;;;10240758;28;93785;-54
2023/09/02 07:17:04;;;;;;;;;;;20.00;68.30;;;;;;10222927;28;94908;-54
2023/09/02 07:22:06;;;;;;;;;;;20.00;68.40;;;;;;10214826;28;94505;-55
2023/09/02 07:27:08;;;;;;;;;;;20.00;68.50;;;;;;10244186;28;96358;-54
2023/09/02 07:32:10;;;;;;;;;;;20.00;68.30;;;;;;10237507;28;95677;-53
2023/09/02 07:37:12;;;;;;;;;;;20.00;68.40;;;;;;10229152;28;93537;-53
2023/09/02 07:42:13;;;;;;;;;;;20.00;68.40;;;;;;10230077;28;94586;-58
2023/09/02 07:47:15;;;;;;;;;;;20.10;68.30;;;;;;10229592;28;94208;-53
2023/09/02 07:52:17;;;;;;;;;;;20.10;68.40;;;;;;10235180;28;93790;-54
2023/09/02 07:57:19;;;;;;;;;;;20.10;68.40;;;;;;10239451;28;96926;-52
2023/09/02 08:02:20;;;;;;;;;;;20.10;68.60;;;;;;10219595;28;93683;-52
2023/09/02 08:07:22;;;;;;;;;;;20.10;68.60;;;;;;10226492;28;94407;-52
2023/09/02 08:12:23;;;;;;;;;;;20.10;69.10;;;;;;10228080;28;93909;-54
2023/09/02 08:17:25;;;;;;;;;;;20.20;68.20;;;;;;10230656;28;96245;-53
2023/09/02 08:22:27;;;;;;;;;;;20.10;68.40;;;;;;10225664;28;93860;-53
2023/09/02 08:27:29;;;;;;;;;;;20.10;68.50;;;;;;10218452;28;94520;-52
2023/09/02 08:32:31;;;;;;;;;;;20.20;69.20;;;;;;10216342;28;94448;-53
2023/09/02 08:37:34;;;;;;;;;;;20.20;69.80;;;;;;10215136;28;94269;-51
2023/09/02 08:42:37;;;;;;;;;;;20.20;68.80;;;;;;10205838;28;96467;-50
2023/09/02 08:47:39;;;;;;;;;;;20.20;68.90;;;;;;10200930;28;93560;-52
2023/09/02 08:52:41;;;;;;;;;;;20.20;68.80;;;;;;10220767;28;93182;-52
2023/09/02 08:57:43;;;;;;;;;;;20.20;68.90;;;;;;10220371;28;93384;-53
2023/09/02 09:02:45;;;;;;;;;;;20.20;69.10;;;;;;10200189;28;93384;-54
2023/09/02 09:07:48;;;;;;;;;;;20.20;69.00;;;;;;10210622;28;96107;-55
2023/09/02 09:12:50;;;;;;;;;;;20.20;69.00;;;;;;10234132;28;94719;-52
2023/09/02 09:17:52;;;;;;;;;;;20.20;68.90;;;;;;10209670;28;93424;-55
2023/09/02 09:22:55;;;;;;;;;;;20.20;68.90;;;;;;10217015;28;94293;-54
2023/09/02 09:28:07;;;;;;;;;;;20.10;69.00;;;;;;10220440;28;94335;-55
2023/09/02 09:33:08;;;;;;;;;;;20.10;68.80;;;;;;10214267;28;95075;-54
2023/09/02 09:38:11;;;;;;;;;;;20.20;68.80;;;;;;10210449;28;95035;-54
2023/09/02 09:43:14;;;;;;;;;;;20.10;68.90;;;;;;10211442;28;92727;-54
2023/09/02 09:48:17;;;;;;;;;;;20.10;69.00;;;;;;10208329;28;93678;-53
2023/09/02 09:53:18;;;;;;;;;;;20.10;69.00;;;;;;10198432;28;94527;-54
2023/09/02 09:58:24;;;;;;;;;;;20.10;69.10;;;;;;10219494;28;96075;-54
2023/09/02 10:03:30;;;;;;;;;;;20.10;69.20;;;;;;10222034;28;94334;-52
2023/09/02 10:08:53;;;;;;;;;;;20.10;69.20;;;;;;10208003;28;113854;-53
2023/09/02 10:13:56;;;;;;;;;;;20.10;69.20;;;;;;10220496;28;95153;-53
2023/09/02 10:18:58;;;;;;;;;;;20.10;69.00;;;;;;10198872;28;94788;-54
2023/09/02 10:24:02;;;;;;;;;;;20.20;69.00;;;;;;10209329;28;93428;-54
2023/09/02 10:29:06;;;;;;;;;;;20.10;69.00;;;;;;10198524;28;94688;-52
2023/09/02 10:34:21;;;;;;;;;;;20.20;69.00;;;;;;10220090;28;93695;-54
2023/09/02 10:39:34;;;;;;;;;;;20.10;69.00;;;;;;10209569;28;94916;-53
2023/09/02 10:44:36;;;;;;;;;;;20.10;69.00;;;;;;10209207;28;94420;-53
2023/09/02 10:49:37;;;;;;;;;;;20.20;69.10;;;;;;10196349;28;96884;-52
2023/09/02 10:54:58;;;;;;;;;;;20.10;69.10;;;;;;10207932;28;93864;-52
2023/09/02 11:00:12;;;;;;;;;;;20.20;69.20;;;;;;10227004;28;94567;-54
2023/09/02 11:05:14;;;;;;;;;;;20.20;69.10;;;;;;10217594;28;94423;-53
2023/09/02 11:10:17;;;;;;;;;;;20.20;69.00;;;;;;10219139;28;94550;-51
2023/09/02 11:15:19;;;;;;;;;;;20.20;68.80;;;;;;10212002;28;94063;-53
2023/09/02 11:20:24;;;;;;;;;;;20.20;68.80;;;;;;10189822;28;94536;-51
2023/09/02 11:25:39;;;;;;;;;;;20.20;68.80;;;;;;10207938;28;94026;-53
2023/09/02 11:31:00;;;;;;;;;;;20.30;68.90;;;;;;10214967;28;93479;-53
2023/09/02 11:36:02;;;;;;;;;;;20.30;68.90;;;;;;10229243;28;93435;-50
2023/09/02 11:41:04;;;;;;;;;;;20.30;68.90;;;;;;10215659;28;97431;-54
2023/09/02 11:46:08;;;;;;;;;;;20.30;68.90;;;;;;10203751;28;93952;-51
2023/09/02 11:51:10;;;;;;;;;;;20.20;68.80;;;;;;10207665;28;93566;-51
2023/09/02 11:56:12;;;;;;;;;;;20.20;68.80;;;;;;10215793;28;95398;-52
2023/09/02 12:01:14;;;;;;;;;;;20.20;68.90;;;;;;10227402;28;93809;-49
2023/09/02 12:06:16;;;;;;;;;;;20.20;68.90;;;;;;10216846;28;93444;-53
2023/09/02 12:11:18;;;;;;;;;;;20.20;68.90;;;;;;10224555;28;94431;-53
2023/09/02 12:16:20;;;;;;;;;;;20.20;68.90;;;;;;10217076;28;94016;-53
2023/09/02 12:21:24;;;;;;;;;;;20.30;68.90;;;;;;10210043;28;94144;-54
2023/09/02 12:26:25;;;;;;;;;;;20.30;68.90;;;;;;10208057;28;93951;-54
2023/09/02 12:31:27;;;;;;;;;;;20.30;68.80;;;;;;10236183;28;96995;-54
2023/09/02 12:36:33;;;;;;;;;;;20.30;68.80;;;;;;10218900;28;93403;-53
2023/09/02 12:41:38;;;;;;;;;;;20.40;68.80;;;;;;10220054;28;93807;-52
2023/09/02 12:46:39;;;;;;;;;;;20.40;68.80;;;;;;10222234;28;94534;-54
2023/09/02 12:51:41;;;;;;;;;;;20.40;68.70;;;;;;10234649;28;93465;-54
2023/09/02 12:56:43;;;;;;;;;;;20.50;68.70;;;;;;10225242;28;94507;-53
2023/09/02 13:01:45;;;;;;;;;;;20.50;68.60;;;;;;10215373;28;95515;-51
2023/09/02 13:06:47;;;;;;;;;;;20.50;68.60;;;;;;10226116;28;93755;-52
2023/09/02 13:11:49;;;;;;;;;;;20.50;68.50;;;;;;10198353;28;93452;-53
2023/09/02 13:16:51;;;;;;;;;;;20.60;68.50;;;;;;10207627;28;93387;-52
2023/09/02 13:21:52;;;;;;;;;;;20.60;68.50;;;;;;10221416;28;97405;-52
2023/09/02 13:26:57;;;;;;;;;;;20.60;68.40;;;;;;10208968;28;94770;-54
2023/09/02 13:32:10;;;;;;;;;;;20.60;68.30;;;;;;10216644;28;94332;-52
2023/09/02 13:37:11;;;;;;;;;;;20.60;68.40;;;;;;10217212;28;94751;-53
2023/09/02 13:42:16;;;;;;;;;;;20.60;68.40;;;;;;10232549;28;95080;-54
2023/09/02 13:47:18;;;;;;;;;;;20.60;68.50;;;;;;10203379;28;93381;-54
2023/09/02 13:52:23;;;;;;;;;;;20.60;68.40;;;;;;10211657;28;92802;-52
2023/09/02 13:57:25;;;;;;;;;;;20.60;68.40;;;;;;10212174;28;93673;-53
2023/09/02 14:02:27;;;;;;;;;;;20.60;68.30;;;;;;10214492;28;94625;-52
2023/09/02 14:07:28;;;;;;;;;;;20.70;68.30;;;;;;10198479;28;94570;-53
2023/09/02 14:12:30;;;;;;;;;;;20.70;68.20;;;;;;10195043;28;96982;-54
2023/09/02 14:17:32;;;;;;;;;;;20.70;68.20;;;;;;10216836;28;94733;-54
2023/09/02 14:22:33;;;;;;;;;;;20.70;68.20;;;;;;10210219;28;93445;-53
2023/09/02 14:27:38;;;;;;;;;;;20.70;68.10;;;;;;10205835;28;93763;-53
2023/09/02 14:32:40;;;;;;;;;;;20.70;68.10;;;;;;10220674;28;93393;-54
2023/09/02 14:37:41;;;;;;;;;;;20.70;68.00;;;;;;10200472;28;92950;-54
2023/09/02 14:42:43;;;;;;;;;;;20.70;68.10;;;;;;10207652;28;94178;-52
2023/09/02 14:47:45;;;;;;;;;;;20.70;68.10;;;;;;10219261;28;94116;-54
2023/09/02 14:52:47;;;;;;;;;;;20.80;68.20;;;;;;10204539;28;95641;-56
2023/09/02 14:57:51;;;;;;;;;;;20.70;68.10;;;;;;10213129;28;95132;-54
2023/09/02 15:02:53;;;;;;;;;;;20.70;68.10;;;;;;10209550;28;95750;-54
2023/09/02 15:07:58;;;;;;;;;;;20.70;68.10;;;;;;10222577;28;93743;-52
2023/09/02 15:13:02;;;;;;;;;;;20.70;68.10;;;;;;10204220;28;93747;-54
2023/09/02 15:18:16;;;;;;;;;;;20.70;68.10;;;;;;10200119;28;95771;-54
2023/09/02 15:23:18;;;;;;;;;;;20.70;68.10;;;;;;10230572;28;94449;-50
2023/09/02 15:28:20;;;;;;;;;;;20.70;68.20;;;;;;10200319;28;94511;-53
2023/09/02 15:33:22;;;;;;;;;;;20.70;68.10;;;;;;10200004;28;93478;-53
2023/09/02 15:38:24;;;;;;;;;;;20.70;68.10;;;;;;10232573;28;92776;-53
2023/09/02 15:43:25;;;;;;;;;;;20.70;68.10;;;;;;10220489;28;93398;-53
2023/09/02 15:48:27;;;;;;;;;;;20.70;68.20;;;;;;10205916;28;93775;-54
2023/09/02 15:53:29;;;;;;;;;;;20.70;68.30;;;;;;10212188;28;96953;-54
2023/09/02 15:58:31;;;;;;;;;;;20.70;68.30;;;;;;10209255;28;94483;-52
2023/09/02 16:03:32;;;;;;;;;;;20.70;68.30;;;;;;10204156;28;94783;-52
2023/09/02 16:08:35;;;;;;;;;;;20.70;68.40;;;;;;10203534;28;94376;-53
2023/09/02 16:13:38;;;;;;;;;;;20.70;68.40;;;;;;10202036;28;94408;-67
2023/09/02 16:18:40;;;;;;;;;;;20.70;68.50;;;;;;10217463;28;94365;-54
2023/09/02 16:23:42;;;;;;;;;;;20.60;68.40;;;;;;10229139;28;93449;-54
2023/09/02 16:28:43;;;;;;;;;;;20.70;68.50;;;;;;10204120;28;92749;-53
2023/09/02 16:33:46;;;;;;;;;;;20.70;68.60;;;;;;10214103;28;94060;-52
2023/09/02 16:38:48;;;;;;;;;;;20.70;68.60;;;;;;10239717;28;93405;-53
2023/09/02 16:43:50;;;;;;;;;;;20.60;68.50;;;;;;10215054;28;96949;-54
2023/09/02 16:49:11;;;;;;;;;;;20.70;68.60;;;;;;10215826;28;93554;-52
2023/09/02 16:54:13;;;;;;;;;;;20.70;68.70;;;;;;10228781;28;93520;-54
2023/09/02 16:59:14;;;;;;;;;;;20.60;68.60;;;;;;10215377;28;93797;-51
2023/09/02 17:04:16;;;;;;;;;;;20.60;68.60;;;;;;10218709;28;94018;-54
2023/09/02 17:09:19;;;;;;;;;;;20.60;68.60;;;;;;10230368;28;94458;-54
2023/09/02 17:14:21;;;;;;;;;;;20.60;68.70;;;;;;10231951;28;92811;-53
2023/09/02 17:19:23;;;;;;;;;;;20.60;68.60;;;;;;10213083;28;93594;-50
2023/09/02 17:24:25;;;;;;;;;;;20.60;68.70;;;;;;10224610;28;93749;-54
2023/09/02 17:29:26;;;;;;;;;;;20.50;68.80;;;;;;10230628;28;94367;-54
2023/09/02 17:34:28;;;;;;;;;;;20.60;68.80;;;;;;10230160;28;96830;-54
2023/09/02 17:39:30;;;;;;;;;;;20.50;68.80;;;;;;10212046;28;94382;-54
2023/09/02 17:44:32;;;;;;;;;;;20.50;68.80;;;;;;10200156;28;93402;-54
2023/09/02 17:49:33;;;;;;;;;;;20.50;68.80;;;;;;10212623;28;93473;-53
2023/09/02 17:54:35;;;;;;;;;;;20.50;68.80;;;;;;10210035;28;94536;-54
2023/09/02 17:59:37;;;;;;;;;;;20.60;69.30;;;;;;10217036;28;94392;-55
2023/09/02 18:04:39;;;;;;;;;;;20.50;68.80;;;;;;10234338;28;93546;-53
2023/09/02 18:09:40;;;;;;;;;;;20.50;68.70;;;;;;10204196;28;93747;-53
2023/09/02 18:14:44;;;;;;;;;;;20.50;68.70;;;;;;10211502;28;94678;-53
2023/09/02 18:19:45;;;;;;;;;;;20.50;68.70;;;;;;10216332;28;93401;-54
2023/09/02 18:24:47;;;;;;;;;;;20.50;68.70;;;;;;10207964;28;96444;-52
2023/09/02 18:29:49;;;;;;;;;;;20.50;68.70;;;;;;10205955;28;94448;-52
2023/09/02 18:34:51;;;;;;;;;;;20.50;68.50;;;;;;10210269;28;94712;-54
2023/09/02 18:39:53;;;;;;;;;;;20.50;68.50;;;;;;10214237;28;93255;-51
2023/09/02 18:44:55;;;;;;;;;;;20.50;68.50;;;;;;10207230;28;93817;-54
2023/09/02 18:49:56;;;;;;;;;;;20.50;68.50;;;;;;10227524;28;93642;-55
2023/09/02 18:54:58;;;;;;;;;;;20.60;68.60;;;;;;10216908;28;95083;-53
2023/09/02 18:59:59;;;;;;;;;;;20.50;68.40;;;;;;10220752;28;92081;-52
2023/09/02 19:05:01;;;;;;;;;;;20.60;68.50;;;;;;10207695;28;93474;-51
2023/09/02 19:10:04;;;;;;;;;;;20.60;68.40;;;;;;10207007;28;93711;-53
2023/09/02 19:15:06;;;;;;;;;;;20.60;68.40;;;;;;10206692;28;95840;-54
2023/09/02 19:20:08;;;;;;;;;;;20.50;68.30;;;;;;10217940;28;94352;-51
2023/09/02 19:25:14;;;;;;;;;;;20.60;68.40;;;;;;10215813;28;93489;-52
2023/09/02 19:30:15;;;;;;;;;;;20.60;68.30;;;;;;10216688;28;93411;-50
2023/09/02 19:35:17;;;;;;;;;;;20.60;68.30;;;;;;10208283;28;95827;-54
2023/09/02 19:40:19;;;;;;;;;;;20.60;68.20;;;;;;10208165;28;95236;-57
2023/09/02 19:45:22;;;;;;;;;;;20.60;68.20;;;;;;10208012;28;94339;-52
2023/09/02 19:50:24;;;;;;;;;;;20.60;68.20;;;;;;10231802;28;92725;-66
2023/09/02 19:55:26;;;;;;;;;;;20.60;68.10;;;;;;10193766;28;93931;-55
2023/09/02 20:00:28;;;;;;;;;;;20.60;68.10;;;;;;10206493;28;94781;-55
2023/09/02 20:05:29;;;;;;;;;;;20.60;68.10;;;;;;10205833;28;96222;-64
2023/09/02 20:10:33;;;;;;;;;;;20.60;68.00;;;;;;10216034;28;93675;-53
2023/09/02 20:15:35;;;;;;;;;;;20.60;67.90;;;;;;10217003;28;93447;-53
2023/09/02 20:20:37;;;;;;;;;;;20.60;67.90;;;;;;10224562;28;93693;-53
2023/09/02 20:25:38;;;;;;;;;;;20.60;67.90;;;;;;10227975;28;93538;-53
2023/09/02 20:30:40;;;;;;;;;;;20.60;67.90;;;;;;10238998;28;94686;-53
2023/09/02 20:35:42;;;;;;;;;;;20.60;67.90;;;;;;10214304;28;93406;-53
2023/09/02 20:40:43;;;;;;;;;;;20.60;67.80;;;;;;10234449;28;94298;-54
2023/09/02 20:45:45;;;;;;;;;;;20.60;67.80;;;;;;10218972;28;93851;-53
2023/09/02 20:50:48;;;;;;;;;;;20.60;67.70;;;;;;10225283;28;94165;-55
2023/09/02 20:55:49;;;;;;;;;;;20.60;67.80;;;;;;10210900;28;95943;-52
2023/09/02 21:00:51;;;;;;;;;;;20.60;67.70;;;;;;10234650;28;93478;-53
2023/09/02 21:05:53;;;;;;;;;;;20.60;67.70;;;;;;10201214;28;94186;-53
2023/09/02 21:11:05;;;;;;;;;;;20.60;67.80;;;;;;10219973;28;94063;-54
2023/09/02 21:16:10;;;;;;;;;;;20.50;67.80;;;;;;10237724;28;93620;-54
2023/09/02 21:21:19;;;;;;;;;;;20.50;67.80;;;;;;10225017;28;92549;-54
2023/09/02 21:26:20;;;;;;;;;;;20.50;67.70;;;;;;10220581;28;94246;-51
2023/09/02 21:31:22;;;;;;;;;;;20.50;67.80;;;;;;10218718;28;93706;-53
2023/09/02 21:36:24;;;;;;;;;;;20.50;67.90;;;;;;10205023;28;93347;-53
2023/09/02 21:41:25;;;;;;;;;;;20.50;67.90;;;;;;10221637;28;93821;-54
2023/09/02 21:46:27;;;;;;;;;;;20.50;67.90;;;;;;10229532;28;97485;-52
2023/09/02 21:51:29;;;;;;;;;;;20.40;67.80;;;;;;10249793;28;94432;-52
2023/09/02 21:56:31;;;;;;;;;;;20.40;67.90;;;;;;10231757;28;93430;-54
2023/09/02 22:01:33;;;;;;;;;;;20.40;67.90;;;;;;10223611;28;94494;-53
2023/09/02 22:06:35;;;;;;;;;;;20.40;68.00;;;;;;10205017;28;94458;-54
2023/09/02 22:11:37;;;;;;;;;;;20.40;67.90;;;;;;10231616;28;94348;-53
2023/09/02 22:16:39;;;;;;;;;;;20.40;67.90;;;;;;10202286;28;94408;-53
2023/09/02 22:21:41;;;;;;;;;;;20.40;67.90;;;;;;10212859;28;92689;-53
2023/09/02 22:26:43;;;;;;;;;;;20.40;68.00;;;;;;10199535;28;94510;-52
2023/09/02 22:31:44;;;;;;;;;;;20.30;67.90;;;;;;10197585;28;94079;-54
2023/09/02 22:36:47;;;;;;;;;;;20.30;67.90;;;;;;10203308;28;96385;-53
2023/09/02 22:41:50;;;;;;;;;;;20.30;67.90;;;;;;10211850;28;93417;-54
2023/09/02 22:46:51;;;;;;;;;;;20.30;67.90;;;;;;10205300;28;93464;-54
2023/09/02 22:51:53;;;;;;;;;;;20.30;67.90;;;;;;10209032;28;93823;-63
2023/09/02 22:56:55;;;;;;;;;;;20.30;68.90;;;;;;10211629;28;94448;-53
2023/09/02 23:01:57;;;;;;;;;;;20.30;68.00;;;;;;10219267;28;94204;-53
2023/09/02 23:06:58;;;;;;;;;;;20.30;67.90;;;;;;10230797;28;93840;-53
2023/09/02 23:12:00;;;;;;;;;;;20.30;67.90;;;;;;10209727;28;92662;-52
2023/09/02 23:17:02;;;;;;;;;;;20.30;67.90;;;;;;10225350;28;94697;-50
2023/09/02 23:22:05;;;;;;;;;;;20.30;67.90;;;;;;10207441;28;94545;-53
2023/09/02 23:27:06;;;;;;;;;;;20.30;67.90;;;;;;10204713;28;97222;-51
2023/09/02 23:32:10;;;;;;;;;;;20.30;68.00;;;;;;10211537;28;94632;-53
2023/09/02 23:37:12;;;;;;;;;;;20.30;67.90;;;;;;10196358;28;93645;-53
2023/09/02 23:42:14;;;;;;;;;;;20.30;67.90;;;;;;10198045;28;94486;-53
2023/09/02 23:47:16;;;;;;;;;;;20.30;67.90;;;;;;10209381;28;93844;-54
2023/09/02 23:52:18;;;;;;;;;;;20.30;67.90;;;;;;10211086;28;93946;-54
2023/09/02 23:57:20;;;;;;;;;;;20.30;67.90;;;;;;10230044;28;93806;-52
